createdAt,value
2022-09-04T00:02:31.986Z,77.36
2022-09-04T00:05:10.578Z,77.57
2022-09-04T00:07:48.003Z,77.45
2022-09-04T00:10:38.873Z,77.07
2022-09-04T00:13:11.645Z,76.97
2022-09-04T00:15:57.952Z,77.00
2022-09-04T00:18:41.449Z,77.20
2022-09-04T00:21:07.888Z,77.37
2022-09-04T00:23:44.966Z,76.88
2022-09-04T00:26:27.690Z,77.45
2022-09-04T00:28:59.010Z,76.92
2022-09-04T00:31:38.844Z,77.07
2022-09-04T00:34:46.054Z,77.13
2022-09-04T00:37:20.401Z,77.28
2022-09-04T00:40:14.396Z,76.88
2022-09-04T00:43:13.256Z,76.71
2022-09-04T00:46:18.617Z,76.95
2022-09-04T00:49:03.296Z,76.77
2022-09-04T00:51:41.647Z,76.35
2022-09-04T00:54:26.902Z,76.63
2022-09-04T00:57:18.547Z,76.64
2022-09-04T00:59:59.960Z,76.70
2022-09-04T01:02:41.707Z,77.09
2022-09-04T01:09:58.068Z,76.86
2022-09-04T01:12:51.188Z,76.62
2022-09-04T01:15:41.849Z,77.05
2022-09-04T01:18:14.995Z,76.84
2022-09-04T01:21:10.567Z,77.13
2022-09-04T01:23:52.111Z,76.82
2022-09-04T01:26:32.924Z,77.00
2022-09-04T01:29:21.197Z,76.89
2022-09-04T01:31:58.757Z,76.81
2022-09-04T01:34:35.587Z,76.65
2022-09-04T01:37:41.192Z,76.39
2022-09-04T01:40:56.510Z,76.53
2022-09-04T01:43:24.165Z,76.81
2022-09-04T01:46:21.168Z,76.58
2022-09-04T01:49:01.348Z,76.61
2022-09-04T01:51:56.782Z,76.32
2022-09-04T01:54:42.913Z,76.38
2022-09-04T01:57:24.569Z,76.35
2022-09-04T02:00:33.933Z,76.26
2022-09-04T02:03:22.526Z,76.49
2022-09-04T02:06:10.590Z,76.67
2022-09-04T02:08:55.894Z,76.75
2022-09-04T02:11:29.593Z,76.62
2022-09-04T02:14:08.640Z,76.42
2022-09-04T02:16:56.301Z,76.57
2022-09-04T02:19:41.194Z,76.54
2022-09-04T02:22:26.357Z,76.71
2022-09-04T02:25:02.400Z,76.88
2022-09-04T02:28:08.930Z,77.14
2022-09-04T02:30:49.329Z,76.54
2022-09-04T02:34:05.168Z,76.98
2022-09-04T02:36:50.147Z,76.46
2022-09-04T02:39:44.449Z,76.91
2022-09-04T02:42:25.782Z,76.75
2022-09-04T02:45:09.883Z,76.63
2022-09-04T02:48:04.062Z,76.86
2022-09-04T02:50:50.417Z,76.61
2022-09-04T02:53:41.735Z,76.71
2022-09-04T02:56:35.994Z,76.78
2022-09-04T02:59:21.583Z,76.58
2022-09-04T03:02:00.903Z,76.84
2022-09-04T03:04:35.802Z,76.64
2022-09-04T03:07:26.022Z,76.84
2022-09-04T03:10:21.810Z,76.86
2022-09-04T03:12:53.861Z,76.70
2022-09-04T03:15:50.555Z,76.46
2022-09-04T03:18:29.649Z,76.44
2022-09-04T03:21:16.474Z,76.77
2022-09-04T03:23:58.870Z,76.66
2022-09-04T03:26:48.374Z,76.92
2022-09-04T03:29:14.901Z,77.21
2022-09-04T03:32:18.854Z,76.71
2022-09-04T03:34:59.517Z,77.01
2022-09-04T03:37:31.942Z,77.03
2022-09-04T03:40:19.693Z,76.86
2022-09-04T03:43:07.123Z,77.32
2022-09-04T03:45:48.274Z,77.22
2022-09-04T03:48:23.675Z,77.26
2022-09-04T03:51:04.243Z,76.50
2022-09-04T03:53:35.846Z,76.21
2022-09-04T03:56:45.278Z,77.11
2022-09-04T03:59:31.147Z,76.99
2022-09-04T04:02:39.307Z,77.07
2022-09-04T04:05:27.347Z,76.98
2022-09-04T04:08:15.364Z,77.41
2022-09-04T04:10:45.558Z,77.12
2022-09-04T04:13:36.583Z,77.43
2022-09-04T04:16:31.223Z,77.10
2022-09-04T04:19:10.750Z,76.19
2022-09-04T04:21:55.498Z,75.87
2022-09-04T04:24:41.403Z,75.96
2022-09-04T04:27:36.076Z,75.99
2022-09-04T04:30:07.105Z,76.40
2022-09-04T04:32:51.550Z,76.68
2022-09-04T04:35:25.048Z,77.13
2022-09-04T04:38:07.617Z,76.98
2022-09-04T04:40:50.116Z,77.11
2022-09-04T04:43:40.851Z,76.98
2022-09-04T04:46:34.743Z,76.88
2022-09-04T04:49:28.474Z,76.94
2022-09-04T04:52:32.619Z,76.84
2022-09-04T04:55:21.330Z,76.98
2022-09-04T04:58:06.155Z,77.34
2022-09-04T05:00:45.451Z,77.49
2022-09-04T05:03:43.046Z,77.09
2022-09-04T05:06:36.323Z,77.53
2022-09-04T05:09:23.493Z,77.44
2022-09-04T05:12:00.301Z,77.52
2022-09-04T05:14:38.639Z,77.18
2022-09-04T05:17:17.198Z,77.11
2022-09-04T05:20:34.968Z,77.48
2022-09-04T05:23:29.613Z,77.65
2022-09-04T05:26:33.134Z,77.29
2022-09-04T05:29:37.021Z,76.57
2022-09-04T05:32:28.859Z,76.76
2022-09-04T05:35:17.837Z,77.09
2022-09-04T05:38:22.397Z,76.69
2022-09-04T05:41:07.667Z,76.78
2022-09-04T05:43:50.042Z,76.51
2022-09-04T05:46:19.330Z,76.48
2022-09-04T05:49:05.880Z,75.36
2022-09-04T05:52:04.733Z,75.61
2022-09-04T05:54:59.151Z,75.77
2022-09-04T05:57:37.870Z,75.55
2022-09-04T06:00:16.414Z,75.70
2022-09-04T06:03:20.752Z,75.61
2022-09-04T06:06:24.715Z,74.81
2022-09-04T06:09:28.664Z,74.46
2022-09-04T06:12:28.878Z,73.89
2022-09-04T06:15:32.944Z,74.26
2022-09-04T06:18:18.294Z,74.12
2022-09-04T06:21:43.881Z,73.53
2022-09-04T06:24:19.238Z,73.83
2022-09-04T06:27:23.351Z,73.48
2022-09-04T06:29:53.122Z,73.52
2022-09-04T06:32:19.555Z,73.66
2022-09-04T06:35:09.461Z,73.38
2022-09-04T06:38:01.340Z,73.04
2022-09-04T06:40:43.092Z,72.61
2022-09-04T06:43:32.636Z,72.27
2022-09-04T06:46:29.852Z,72.27
2022-09-04T06:49:18.912Z,72.55
2022-09-04T06:51:57.617Z,72.85
2022-09-04T06:54:46.364Z,72.54
2022-09-04T06:57:25.930Z,72.82
2022-09-04T06:59:58.461Z,72.94
2022-09-04T07:02:28.889Z,72.23
2022-09-04T07:05:17.854Z,72.61
2022-09-04T07:08:13.124Z,72.91
2022-09-04T07:11:14.677Z,73.01
2022-09-04T07:14:16.998Z,72.57
2022-09-04T07:17:05.974Z,72.56
2022-09-04T07:19:35.117Z,72.57
2022-09-04T07:22:07.006Z,72.48
2022-09-04T07:24:52.320Z,72.24
2022-09-04T07:28:00.372Z,72.13
2022-09-04T07:30:31.715Z,72.19
2022-09-04T07:33:07.249Z,72.14
2022-09-04T07:35:39.302Z,72.33
2022-09-04T07:38:36.461Z,72.00
2022-09-04T07:41:21.707Z,72.42
2022-09-04T07:44:05.051Z,72.15
2022-09-04T07:46:50.595Z,71.95
2022-09-04T07:49:30.476Z,71.60
2022-09-04T07:52:25.974Z,71.75
2022-09-04T07:55:22.230Z,72.28
2022-09-04T07:58:14.730Z,72.51
2022-09-04T08:01:01.244Z,72.43
2022-09-04T08:04:00.203Z,72.69
2022-09-04T08:06:37.709Z,72.49
2022-09-04T08:09:23.156Z,72.46
2022-09-04T08:12:11.765Z,72.46
2022-09-04T08:14:45.838Z,72.40
2022-09-04T08:17:42.999Z,72.07
2022-09-04T08:20:17.044Z,72.21
2022-09-04T08:23:01.940Z,71.76
2022-09-04T08:25:40.549Z,72.04
2022-09-04T08:28:25.140Z,71.56
2022-09-04T08:31:08.067Z,71.53
2022-09-04T08:33:37.321Z,71.39
2022-09-04T08:36:11.010Z,71.17
2022-09-04T08:38:56.573Z,71.44
2022-09-04T08:41:36.128Z,71.29
2022-09-04T08:44:36.486Z,70.93
2022-09-04T08:47:28.448Z,71.18
2022-09-04T08:50:10.025Z,71.11
2022-09-04T08:53:03.895Z,71.12
2022-09-04T08:55:58.637Z,71.08
2022-09-04T08:58:49.506Z,71.04
2022-09-04T09:01:44.841Z,70.47
2022-09-04T09:04:19.662Z,70.54
2022-09-04T09:07:03.329Z,70.42
2022-09-04T09:09:32.707Z,70.26
2022-09-04T09:12:57.273Z,69.87
2022-09-04T09:15:51.604Z,69.92
2022-09-04T09:18:41.472Z,69.80
2022-09-04T09:21:31.320Z,69.42
2022-09-04T09:24:14.084Z,69.35
2022-09-04T09:27:14.749Z,68.90
2022-09-04T09:29:53.030Z,68.57
2022-09-04T09:32:41.345Z,68.07
2022-09-04T09:35:26.405Z,67.81
2022-09-04T09:38:20.497Z,67.43
2022-09-04T09:41:14.607Z,67.49
2022-09-04T09:44:09.041Z,67.33
2022-09-04T09:46:50.492Z,66.93
2022-09-04T09:49:50.774Z,66.63
2022-09-04T09:52:51.545Z,66.39
2022-09-04T09:55:36.715Z,65.85
2022-09-04T09:58:34.077Z,65.38
2022-09-04T10:01:09.137Z,65.14
2022-09-04T10:04:11.537Z,65.09
2022-09-04T10:07:17.357Z,64.11
2022-09-04T10:10:04.135Z,64.35
2022-09-04T10:12:59.679Z,64.73
2022-09-04T10:15:45.396Z,64.62
2022-09-04T10:19:05.688Z,64.61
2022-09-04T10:21:50.354Z,64.66
2022-09-04T10:24:44.211Z,64.35
2022-09-04T10:27:10.590Z,64.53
2022-09-04T10:30:00.934Z,64.49
2022-09-04T10:32:33.043Z,64.15
2022-09-04T10:35:03.160Z,64.52
2022-09-04T10:37:47.494Z,64.05
2022-09-04T10:40:43.359Z,63.47
2022-09-04T10:43:30.363Z,63.35
2022-09-04T10:46:26.093Z,62.79
2022-09-04T10:48:58.657Z,62.19
2022-09-04T10:51:39.448Z,62.60
2022-09-04T10:54:30.873Z,62.12
2022-09-04T10:57:31.407Z,60.56
2022-09-04T11:00:32.961Z,59.31
2022-09-04T11:03:29.106Z,57.85
2022-09-04T11:06:17.608Z,57.29
2022-09-04T11:09:10.768Z,56.71
2022-09-04T11:11:52.791Z,56.23
2022-09-04T11:14:54.155Z,54.83
2022-09-04T11:17:58.776Z,54.25
2022-09-04T11:20:45.650Z,53.93
2022-09-04T11:23:19.108Z,53.39
2022-09-04T11:26:13.879Z,53.01
2022-09-04T11:28:51.255Z,53.21
2022-09-04T11:31:32.228Z,52.91
2022-09-04T11:34:30.806Z,52.06
2022-09-04T11:37:29.424Z,51.38
2022-09-04T11:40:08.956Z,50.51
2022-09-04T11:43:14.104Z,49.61
2022-09-04T11:45:56.472Z,48.77
2022-09-04T11:48:53.359Z,48.69
2022-09-04T11:51:34.416Z,48.30
2022-09-04T11:54:11.999Z,47.80
2022-09-04T11:56:54.234Z,47.70
2022-09-04T11:59:33.012Z,46.62
2022-09-04T12:02:23.983Z,45.35
2022-09-04T12:04:53.550Z,45.30
2022-09-04T12:07:43.424Z,44.22
2022-09-04T12:10:10.201Z,43.91
2022-09-04T12:12:58.717Z,43.96
2022-09-04T12:15:35.661Z,43.58
2022-09-04T12:18:33.487Z,42.06
2022-09-04T12:21:18.149Z,42.16
2022-09-04T12:24:07.182Z,42.12
2022-09-04T12:27:11.901Z,41.61
2022-09-04T12:29:47.440Z,40.97
2022-09-04T12:32:26.251Z,40.19
2022-09-04T12:34:58.458Z,40.32
2022-09-04T12:37:36.206Z,39.13
2022-09-04T12:40:51.003Z,38.50
2022-09-04T12:43:25.528Z,39.01
2022-09-04T12:46:04.139Z,38.40
2022-09-04T12:48:46.772Z,37.80
2022-09-04T12:51:25.108Z,37.64
2022-09-04T12:53:57.950Z,36.62
2022-09-04T12:56:48.178Z,36.29
2022-09-04T12:59:31.497Z,36.03
2022-09-04T13:02:12.290Z,35.71
2022-09-04T13:04:57.362Z,35.64
2022-09-04T13:07:48.606Z,35.25
2022-09-04T13:10:23.949Z,34.36
2022-09-04T13:13:23.752Z,35.15
2022-09-04T13:16:30.904Z,35.46
2022-09-04T13:19:14.948Z,35.84
2022-09-04T13:22:23.432Z,35.78
2022-09-04T13:25:11.545Z,34.92
2022-09-04T13:27:59.941Z,34.74
2022-09-04T13:30:29.360Z,35.11
2022-09-04T13:33:11.137Z,34.72
2022-09-04T13:35:58.971Z,34.83
2022-09-04T13:38:37.582Z,34.65
2022-09-04T13:41:16.135Z,34.49
2022-09-04T13:44:05.540Z,34.58
2022-09-04T13:46:41.286Z,34.16
2022-09-04T13:49:18.161Z,34.11
2022-09-04T13:51:51.609Z,33.88
2022-09-04T13:54:31.870Z,33.98
2022-09-04T13:57:10.231Z,34.13
2022-09-04T13:59:38.296Z,33.90
2022-09-04T14:02:12.372Z,34.28
2022-09-04T14:04:44.122Z,34.11
2022-09-04T14:07:18.827Z,33.52
2022-09-04T14:09:48.100Z,33.60
2022-09-04T14:12:40.067Z,33.23
2022-09-04T14:15:19.431Z,33.14
2022-09-04T14:18:14.124Z,33.12
2022-09-04T14:20:57.867Z,33.41
2022-09-04T14:23:47.507Z,33.30
2022-09-04T14:26:24.304Z,32.69
2022-09-04T14:29:15.669Z,33.14
2022-09-04T14:31:58.995Z,33.10
2022-09-04T14:34:46.709Z,32.75
2022-09-04T14:37:23.939Z,32.98
2022-09-04T14:40:05.923Z,32.90
2022-09-04T14:42:44.270Z,32.53
2022-09-04T14:45:48.966Z,32.85
2022-09-04T14:48:17.653Z,32.57
2022-09-04T14:50:54.265Z,32.52
2022-09-04T14:53:26.302Z,32.01
2022-09-04T14:56:17.765Z,32.23
2022-09-04T14:58:51.063Z,32.27
2022-09-04T15:01:25.192Z,32.33
2022-09-04T15:04:10.227Z,31.62
2022-09-04T15:07:07.752Z,32.19
2022-09-04T15:09:41.040Z,31.74
2022-09-04T15:12:35.991Z,31.61
2022-09-04T15:15:27.270Z,31.92
2022-09-04T15:18:19.930Z,32.31
2022-09-04T15:21:21.144Z,32.28
2022-09-04T15:24:03.568Z,32.05
2022-09-04T15:26:37.523Z,31.87
2022-09-04T15:29:20.322Z,32.05
2022-09-04T15:31:47.002Z,31.67
2022-09-04T15:34:24.292Z,31.67
2022-09-04T15:36:50.826Z,31.41
2022-09-04T15:39:58.502Z,30.98
2022-09-04T15:42:46.469Z,31.02
2022-09-04T15:45:23.529Z,31.49
2022-09-04T15:48:11.099Z,31.34
2022-09-04T15:50:56.744Z,30.54
2022-09-04T15:53:29.062Z,30.69
2022-09-04T15:56:23.659Z,30.15
2022-09-04T15:59:10.030Z,30.43
2022-09-04T16:02:00.474Z,30.54
2022-09-04T16:04:52.622Z,30.25
2022-09-04T16:07:50.380Z,30.39
2022-09-04T16:10:30.427Z,29.59
2022-09-04T16:13:08.036Z,29.68
2022-09-04T16:15:40.575Z,29.99
2022-09-04T16:18:18.444Z,30.03
2022-09-04T16:20:51.594Z,29.60
2022-09-04T16:23:28.636Z,29.42
2022-09-04T16:25:59.720Z,29.38
2022-09-04T16:28:34.798Z,29.76
2022-09-04T16:31:04.452Z,29.25
2022-09-04T16:33:33.059Z,29.46
2022-09-04T16:36:06.166Z,29.22
2022-09-04T16:38:47.662Z,29.29
2022-09-04T16:41:26.312Z,29.33
2022-09-04T16:44:16.643Z,29.65
2022-09-04T16:47:13.012Z,29.43
2022-09-04T16:49:51.278Z,28.48
2022-09-04T16:52:21.895Z,29.07
2022-09-04T16:55:11.406Z,28.77
2022-09-04T16:58:07.149Z,29.14
2022-09-04T17:01:12.862Z,29.15
2022-09-04T17:04:13.778Z,29.29
2022-09-04T17:07:21.590Z,29.28
2022-09-04T17:10:03.919Z,28.75
2022-09-04T17:12:55.383Z,28.98
2022-09-04T17:15:28.943Z,29.20
2022-09-04T17:17:57.131Z,29.19
2022-09-04T17:23:57.665Z,29.68
2022-09-04T17:28:56.458Z,29.76
2022-09-04T17:28:56.584Z,29.54
2022-09-04T17:29:41.724Z,30.51
2022-09-04T17:32:51.496Z,30.57
2022-09-04T17:40:32.145Z,31.07
2022-09-04T17:40:53.606Z,31.62
2022-09-04T17:42:09.247Z,32.13
2022-09-04T17:45:01.445Z,32.56
2022-09-04T17:47:33.180Z,32.94
2022-09-04T17:50:01.560Z,33.59
2022-09-04T17:52:53.245Z,34.38
2022-09-04T17:55:20.794Z,34.48
2022-09-04T17:58:03.443Z,35.11
2022-09-04T18:00:38.376Z,35.40
2022-09-04T18:03:33.201Z,35.55
2022-09-04T18:06:05.494Z,36.25
2022-09-04T18:08:50.319Z,36.81
2022-09-04T18:11:22.859Z,37.61
2022-09-04T18:14:12.933Z,37.95
2022-09-04T18:17:26.155Z,38.54
2022-09-04T18:20:06.464Z,39.32
2022-09-04T18:22:45.032Z,39.59
2022-09-04T18:25:18.600Z,40.70
2022-09-04T18:28:12.431Z,40.89
2022-09-04T18:37:11.981Z,41.16
2022-09-04T18:37:17.020Z,42.03
2022-09-04T18:37:26.560Z,41.45
2022-09-04T18:40:05.978Z,42.37
2022-09-04T18:50:30.746Z,43.16
2022-09-04T18:50:39.984Z,44.15
2022-09-04T18:50:44.807Z,43.51
2022-09-04T18:51:30.553Z,44.37
2022-09-04T18:54:10.977Z,44.90
2022-09-04T18:56:47.909Z,45.38
2022-09-04T18:59:32.784Z,45.53
2022-09-04T19:02:13.654Z,45.92
2022-09-04T19:04:51.189Z,46.58
2022-09-04T19:07:35.523Z,46.46
2022-09-04T19:10:25.423Z,46.81
2022-09-04T19:12:52.360Z,47.59
2022-09-04T19:15:49.782Z,47.61
2022-09-04T19:18:46.236Z,48.15
2022-09-04T19:21:25.028Z,48.50
2022-09-04T19:23:59.758Z,49.00
2022-09-04T19:26:44.414Z,49.19
2022-09-04T19:29:26.907Z,49.57
2022-09-04T19:32:08.343Z,49.99
2022-09-04T19:34:49.369Z,50.29
2022-09-04T19:40:30.156Z,50.42
2022-09-04T19:46:07.335Z,50.74
2022-09-04T19:46:17.788Z,50.75
2022-09-04T19:46:44.284Z,51.38
2022-09-04T19:52:41.625Z,51.67
2022-09-04T19:53:34.662Z,51.83
2022-09-04T19:55:55.574Z,52.09
2022-09-04T19:58:26.579Z,52.32
2022-09-04T20:01:00.078Z,52.99
2022-09-04T20:03:33.224Z,53.29
2022-09-04T20:06:22.299Z,53.47
2022-09-04T20:09:05.292Z,53.95
2022-09-04T20:11:40.097Z,54.37
2022-09-04T20:14:31.551Z,54.39
2022-09-04T20:17:14.971Z,54.80
2022-09-04T20:19:47.223Z,54.90
2022-09-04T20:22:29.608Z,55.06
2022-09-04T20:25:14.979Z,55.40
2022-09-04T20:27:47.427Z,55.67
2022-09-04T20:30:20.041Z,55.99
2022-09-04T20:33:05.982Z,55.99
2022-09-04T20:35:40.108Z,56.28
2022-09-04T20:38:23.018Z,56.40
2022-09-04T20:41:09.119Z,56.48
2022-09-04T20:43:50.998Z,56.83
2022-09-04T20:52:40.804Z,57.10
2022-09-04T20:52:49.297Z,57.50
2022-09-04T20:52:52.602Z,57.52
2022-09-04T20:55:31.150Z,57.95
2022-09-04T21:03:06.440Z,57.96
2022-09-04T21:03:11.155Z,58.13
2022-09-04T21:04:18.541Z,58.16
2022-09-04T21:07:20.405Z,58.50
2022-09-04T21:10:08.173Z,59.13
2022-09-04T21:12:52.760Z,59.25
2022-09-04T21:15:51.628Z,59.30
2022-09-04T21:19:13.012Z,59.60
2022-09-04T21:22:00.170Z,59.95
2022-09-04T21:24:40.809Z,60.03
2022-09-04T21:27:34.651Z,60.25
2022-09-04T21:30:05.697Z,60.43
2022-09-04T21:32:49.246Z,60.99
2022-09-04T21:35:20.193Z,60.97
2022-09-04T21:38:24.264Z,61.02
2022-09-04T21:41:24.451Z,61.12
2022-09-04T21:44:11.114Z,61.47
2022-09-04T21:46:51.527Z,61.51
2022-09-04T21:49:42.995Z,61.56
2022-09-04T21:52:27.994Z,61.82
2022-09-04T21:57:17.592Z,61.95
2022-09-04T22:02:39.549Z,62.52
2022-09-04T22:02:45.028Z,62.61
2022-09-04T22:04:35.272Z,62.60
2022-09-04T22:10:38.505Z,63.32
2022-09-04T22:13:29.663Z,63.15
2022-09-04T22:13:47.829Z,63.21
2022-09-04T22:16:37.821Z,63.22
2022-09-04T22:19:16.255Z,63.22
2022-09-04T22:21:46.502Z,63.56
2022-09-04T22:24:41.012Z,63.81
2022-09-04T22:28:08.231Z,64.24
2022-09-04T22:30:37.761Z,64.16
2022-09-04T22:33:32.456Z,64.14
2022-09-04T22:36:20.952Z,64.36
2022-09-04T22:39:15.213Z,64.82
2022-09-04T22:42:01.346Z,64.23
2022-09-04T22:44:49.069Z,65.04
2022-09-04T22:47:50.377Z,65.20
2022-09-04T22:50:49.677Z,65.10
2022-09-04T22:53:52.117Z,65.27
2022-09-04T22:56:53.558Z,65.63
2022-09-04T22:59:35.439Z,65.23
2022-09-04T23:02:17.235Z,65.27
2022-09-04T23:05:05.533Z,65.21
2022-09-04T23:13:43.837Z,65.85
2022-09-04T23:13:54.384Z,65.88
2022-09-04T23:14:23.796Z,65.53
2022-09-04T23:17:19.770Z,65.70
2022-09-04T23:26:33.395Z,65.71
2022-09-04T23:26:42.367Z,65.91
2022-09-04T23:27:00.387Z,65.86
2022-09-04T23:30:03.877Z,65.86
2022-09-04T23:32:53.803Z,66.40
2022-09-04T23:35:35.429Z,66.30
2022-09-04T23:38:38.884Z,66.57
2022-09-04T23:41:20.685Z,66.42
2022-09-04T23:44:11.345Z,66.32
2022-09-04T23:47:20.703Z,66.52
2022-09-04T23:50:09.090Z,67.20
2022-09-04T23:52:54.654Z,67.14
2022-09-04T23:55:49.781Z,67.46
2022-09-04T23:58:47.137Z,67.40
